sensor_id;sensor_type;location;lat;lon;timestamp;P1;durP1;ratioP1;P2;durP2;ratioP2
11042;SDS011;5574;48.786;10.120;2023-04-29T00:02:16;6.30;;;5.70;;
11042;SDS011;5574;48.786;10.120;2023-04-29T00:04:42;5.97;;;5.47;;
11042;SDS011;5574;48.786;10.120;2023-04-29T00:07:09;5.40;;;4.90;;
11042;SDS011;5574;48.786;10.120;2023-04-29T00:09:39;5.80;;;4.83;;
11042;SDS011;5574;48.786;10.120;2023-04-29T00:12:06;5.20;;;4.80;;
11042;SDS011;5574;48.786;10.120;2023-04-29T00:14:34;4.47;;;4.17;;
11042;SDS011;5574;48.786;10.120;2023-04-29T00:17:02;4.40;;;4.10;;
11042;SDS011;5574;48.786;10.120;2023-04-29T00:19:28;4.53;;;4.17;;
11042;SDS011;5574;48.786;10.120;2023-04-29T00:21:55;7.10;;;5.13;;
11042;SDS011;5574;48.786;10.120;2023-04-29T00:24:22;5.00;;;4.60;;
11042;SDS011;5574;48.786;10.120;2023-04-29T00:26:49;5.03;;;4.53;;
11042;SDS011;5574;48.786;10.120;2023-04-29T00:29:16;5.37;;;4.33;;
11042;SDS011;5574;48.786;10.120;2023-04-29T00:31:42;4.67;;;4.27;;
11042;SDS011;5574;48.786;10.120;2023-04-29T00:34:10;4.77;;;4.37;;
11042;SDS011;5574;48.786;10.120;2023-04-29T00:36:37;4.60;;;4.20;;
11042;SDS011;5574;48.786;10.120;2023-04-29T00:39:04;4.47;;;4.07;;
11042;SDS011;5574;48.786;10.120;2023-04-29T00:41:31;4.70;;;4.27;;
11042;SDS011;5574;48.786;10.120;2023-04-29T00:43:59;4.30;;;4.00;;
11042;SDS011;5574;48.786;10.120;2023-04-29T00:46:26;4.33;;;3.93;;
11042;SDS011;5574;48.786;10.120;2023-04-29T00:48:53;4.20;;;3.53;;
11042;SDS011;5574;48.786;10.120;2023-04-29T00:51:21;4.50;;;4.10;;
11042;SDS011;5574;48.786;10.120;2023-04-29T00:53:48;4.23;;;3.93;;
11042;SDS011;5574;48.786;10.120;2023-04-29T00:56:15;4.20;;;3.90;;
11042;SDS011;5574;48.786;10.120;2023-04-29T00:58:44;4.03;;;3.67;;
11042;SDS011;5574;48.786;10.120;2023-04-29T01:01:14;4.53;;;4.13;;
11042;SDS011;5574;48.786;10.120;2023-04-29T01:03:41;3.63;;;3.27;;
11042;SDS011;5574;48.786;10.120;2023-04-29T01:06:10;5.07;;;4.13;;
11042;SDS011;5574;48.786;10.120;2023-04-29T01:08:47;3.40;;;3.20;;
11042;SDS011;5574;48.786;10.120;2023-04-29T01:11:26;4.00;;;3.60;;
11042;SDS011;5574;48.786;10.120;2023-04-29T01:13:59;3.87;;;3.47;;
11042;SDS011;5574;48.786;10.120;2023-04-29T01:16:29;3.33;;;3.13;;
11042;SDS011;5574;48.786;10.120;2023-04-29T01:19:10;3.10;;;2.90;;
11042;SDS011;5574;48.786;10.120;2023-04-29T01:21:45;3.40;;;2.63;;
11042;SDS011;5574;48.786;10.120;2023-04-29T01:24:15;3.00;;;2.70;;
11042;SDS011;5574;48.786;10.120;2023-04-29T01:26:42;2.53;;;2.37;;
11042;SDS011;5574;48.786;10.120;2023-04-29T01:29:21;2.50;;;2.30;;
11042;SDS011;5574;48.786;10.120;2023-04-29T01:31:55;2.57;;;2.37;;
11042;SDS011;5574;48.786;10.120;2023-04-29T01:34:29;1.93;;;1.83;;
11042;SDS011;5574;48.786;10.120;2023-04-29T01:37:01;2.30;;;2.20;;
11042;SDS011;5574;48.786;10.120;2023-04-29T01:39:36;4.03;;;2.20;;
11042;SDS011;5574;48.786;10.120;2023-04-29T01:42:13;2.17;;;1.77;;
11042;SDS011;5574;48.786;10.120;2023-04-29T01:44:45;1.83;;;1.60;;
11042;SDS011;5574;48.786;10.120;2023-04-29T01:47:14;1.80;;;1.70;;
11042;SDS011;5574;48.786;10.120;2023-04-29T01:49:41;3.27;;;2.00;;
11042;SDS011;5574;48.786;10.120;2023-04-29T01:52:10;2.10;;;1.90;;
11042;SDS011;5574;48.786;10.120;2023-04-29T01:54:38;3.03;;;1.80;;
11042;SDS011;5574;48.786;10.120;2023-04-29T01:57:05;1.87;;;1.77;;
11042;SDS011;5574;48.786;10.120;2023-04-29T01:59:32;2.00;;;1.90;;
11042;SDS011;5574;48.786;10.120;2023-04-29T02:01:59;2.60;;;1.80;;
11042;SDS011;5574;48.786;10.120;2023-04-29T02:04:25;2.50;;;1.87;;
11042;SDS011;5574;48.786;10.120;2023-04-29T02:06:52;1.90;;;1.70;;
11042;SDS011;5574;48.786;10.120;2023-04-29T02:09:19;2.00;;;1.90;;
11042;SDS011;5574;48.786;10.120;2023-04-29T02:11:47;2.23;;;1.80;;
11042;SDS011;5574;48.786;10.120;2023-04-29T02:14:14;1.97;;;1.87;;
11042;SDS011;5574;48.786;10.120;2023-04-29T02:16:42;2.33;;;2.13;;
11042;SDS011;5574;48.786;10.120;2023-04-29T02:19:09;3.40;;;1.80;;
11042;SDS011;5574;48.786;10.120;2023-04-29T02:21:36;2.60;;;1.90;;
11042;SDS011;5574;48.786;10.120;2023-04-29T02:24:04;1.70;;;1.60;;
11042;SDS011;5574;48.786;10.120;2023-04-29T02:26:31;2.03;;;1.60;;
11042;SDS011;5574;48.786;10.120;2023-04-29T02:28:59;2.27;;;2.10;;
11042;SDS011;5574;48.786;10.120;2023-04-29T02:31:27;2.00;;;1.90;;
11042;SDS011;5574;48.786;10.120;2023-04-29T02:33:54;2.30;;;1.63;;
11042;SDS011;5574;48.786;10.120;2023-04-29T02:36:20;2.73;;;1.80;;
11042;SDS011;5574;48.786;10.120;2023-04-29T02:38:48;2.23;;;2.03;;
11042;SDS011;5574;48.786;10.120;2023-04-29T02:41:15;3.33;;;2.00;;
11042;SDS011;5574;48.786;10.120;2023-04-29T02:43:42;3.40;;;2.00;;
11042;SDS011;5574;48.786;10.120;2023-04-29T02:46:11;2.93;;;1.70;;
11042;SDS011;5574;48.786;10.120;2023-04-29T02:48:37;2.07;;;1.90;;
11042;SDS011;5574;48.786;10.120;2023-04-29T02:51:04;1.77;;;1.67;;
11042;SDS011;5574;48.786;10.120;2023-04-29T02:53:31;2.73;;;1.87;;
11042;SDS011;5574;48.786;10.120;2023-04-29T02:55:58;2.50;;;2.10;;
11042;SDS011;5574;48.786;10.120;2023-04-29T02:58:24;2.07;;;1.97;;
11042;SDS011;5574;48.786;10.120;2023-04-29T03:00:51;3.47;;;3.13;;
11042;SDS011;5574;48.786;10.120;2023-04-29T03:03:19;2.70;;;2.50;;
11042;SDS011;5574;48.786;10.120;2023-04-29T03:05:47;3.03;;;2.67;;
11042;SDS011;5574;48.786;10.120;2023-04-29T03:08:14;3.73;;;3.43;;
11042;SDS011;5574;48.786;10.120;2023-04-29T03:10:40;4.53;;;3.47;;
11042;SDS011;5574;48.786;10.120;2023-04-29T03:13:07;4.37;;;3.97;;
11042;SDS011;5574;48.786;10.120;2023-04-29T03:15:34;4.20;;;3.80;;
11042;SDS011;5574;48.786;10.120;2023-04-29T03:18:01;5.07;;;4.47;;
11042;SDS011;5574;48.786;10.120;2023-04-29T03:20:30;4.70;;;4.30;;
11042;SDS011;5574;48.786;10.120;2023-04-29T03:22:57;4.33;;;3.97;;
11042;SDS011;5574;48.786;10.120;2023-04-29T03:25:24;7.17;;;4.70;;
11042;SDS011;5574;48.786;10.120;2023-04-29T03:27:52;4.87;;;4.47;;
11042;SDS011;5574;48.786;10.120;2023-04-29T03:30:19;5.30;;;4.70;;
11042;SDS011;5574;48.786;10.120;2023-04-29T03:32:46;4.57;;;4.23;;
11042;SDS011;5574;48.786;10.120;2023-04-29T03:35:12;4.43;;;4.03;;
11042;SDS011;5574;48.786;10.120;2023-04-29T03:37:41;4.50;;;4.10;;
11042;SDS011;5574;48.786;10.120;2023-04-29T03:40:08;4.90;;;4.50;;
11042;SDS011;5574;48.786;10.120;2023-04-29T03:42:36;4.70;;;4.30;;
11042;SDS011;5574;48.786;10.120;2023-04-29T03:45:03;4.77;;;4.37;;
11042;SDS011;5574;48.786;10.120;2023-04-29T03:47:30;4.67;;;4.27;;
11042;SDS011;5574;48.786;10.120;2023-04-29T03:49:57;4.00;;;3.70;;
11042;SDS011;5574;48.786;10.120;2023-04-29T03:52:24;4.20;;;3.90;;
11042;SDS011;5574;48.786;10.120;2023-04-29T03:54:52;4.33;;;4.03;;
11042;SDS011;5574;48.786;10.120;2023-04-29T03:57:18;4.53;;;3.93;;
11042;SDS011;5574;48.786;10.120;2023-04-29T03:59:45;4.37;;;4.03;;
11042;SDS011;5574;48.786;10.120;2023-04-29T04:02:14;4.43;;;4.03;;
11042;SDS011;5574;48.786;10.120;2023-04-29T04:04:41;3.90;;;3.60;;
11042;SDS011;5574;48.786;10.120;2023-04-29T04:07:07;3.80;;;3.50;;
11042;SDS011;5574;48.786;10.120;2023-04-29T04:09:35;3.93;;;3.53;;
11042;SDS011;5574;48.786;10.120;2023-04-29T04:12:03;3.83;;;3.40;;
11042;SDS011;5574;48.786;10.120;2023-04-29T04:14:31;4.03;;;3.33;;
11042;SDS011;5574;48.786;10.120;2023-04-29T04:16:58;3.50;;;3.20;;
11042;SDS011;5574;48.786;10.120;2023-04-29T04:19:25;4.53;;;3.10;;
11042;SDS011;5574;48.786;10.120;2023-04-29T04:21:53;4.00;;;3.70;;
11042;SDS011;5574;48.786;10.120;2023-04-29T04:24:19;4.83;;;3.50;;
11042;SDS011;5574;48.786;10.120;2023-04-29T04:26:46;3.83;;;3.47;;
11042;SDS011;5574;48.786;10.120;2023-04-29T04:29:14;4.50;;;3.57;;
11042;SDS011;5574;48.786;10.120;2023-04-29T04:31:41;4.00;;;3.70;;
11042;SDS011;5574;48.786;10.120;2023-04-29T04:34:08;3.13;;;2.93;;
11042;SDS011;5574;48.786;10.120;2023-04-29T04:36:34;3.47;;;2.93;;
11042;SDS011;5574;48.786;10.120;2023-04-29T04:39:01;3.50;;;3.20;;
11042;SDS011;5574;48.786;10.120;2023-04-29T04:41:28;3.33;;;3.07;;
11042;SDS011;5574;48.786;10.120;2023-04-29T04:43:56;3.87;;;3.20;;
11042;SDS011;5574;48.786;10.120;2023-04-29T04:46:24;3.50;;;3.20;;
11042;SDS011;5574;48.786;10.120;2023-04-29T04:48:51;5.00;;;2.93;;
11042;SDS011;5574;48.786;10.120;2023-04-29T04:51:17;3.43;;;3.03;;
11042;SDS011;5574;48.786;10.120;2023-04-29T04:53:44;4.03;;;3.63;;
11042;SDS011;5574;48.786;10.120;2023-04-29T04:56:11;3.37;;;3.10;;
11042;SDS011;5574;48.786;10.120;2023-04-29T04:58:38;3.17;;;2.60;;
11042;SDS011;5574;48.786;10.120;2023-04-29T05:01:04;3.50;;;2.70;;
11042;SDS011;5574;48.786;10.120;2023-04-29T05:03:33;3.37;;;2.77;;
11042;SDS011;5574;48.786;10.120;2023-04-29T05:05:59;3.20;;;2.87;;
11042;SDS011;5574;48.786;10.120;2023-04-29T05:08:26;3.00;;;2.80;;
11042;SDS011;5574;48.786;10.120;2023-04-29T05:10:53;2.73;;;2.53;;
11042;SDS011;5574;48.786;10.120;2023-04-29T05:13:20;2.73;;;2.53;;
11042;SDS011;5574;48.786;10.120;2023-04-29T05:15:47;2.60;;;2.40;;
11042;SDS011;5574;48.786;10.120;2023-04-29T05:18:13;3.67;;;3.00;;
11042;SDS011;5574;48.786;10.120;2023-04-29T05:20:41;2.67;;;2.47;;
11042;SDS011;5574;48.786;10.120;2023-04-29T05:23:08;3.50;;;3.20;;
11042;SDS011;5574;48.786;10.120;2023-04-29T05:25:35;2.70;;;2.50;;
11042;SDS011;5574;48.786;10.120;2023-04-29T05:28:02;2.90;;;2.70;;
11042;SDS011;5574;48.786;10.120;2023-04-29T05:30:29;3.17;;;2.97;;
11042;SDS011;5574;48.786;10.120;2023-04-29T05:32:55;3.20;;;2.90;;
11042;SDS011;5574;48.786;10.120;2023-04-29T05:35:22;3.60;;;3.30;;
11042;SDS011;5574;48.786;10.120;2023-04-29T05:37:50;3.77;;;3.47;;
11042;SDS011;5574;48.786;10.120;2023-04-29T05:40:17;3.87;;;3.53;;
11042;SDS011;5574;48.786;10.120;2023-04-29T05:42:44;3.40;;;3.20;;
11042;SDS011;5574;48.786;10.120;2023-04-29T05:45:11;3.27;;;3.07;;
11042;SDS011;5574;48.786;10.120;2023-04-29T05:47:37;3.60;;;3.30;;
11042;SDS011;5574;48.786;10.120;2023-04-29T05:50:05;3.60;;;3.30;;
11042;SDS011;5574;48.786;10.120;2023-04-29T05:52:32;3.30;;;3.10;;
11042;SDS011;5574;48.786;10.120;2023-04-29T05:55:00;3.63;;;3.33;;
11042;SDS011;5574;48.786;10.120;2023-04-29T05:57:27;3.80;;;3.40;;
11042;SDS011;5574;48.786;10.120;2023-04-29T05:59:53;3.87;;;3.53;;
11042;SDS011;5574;48.786;10.120;2023-04-29T06:02:20;4.43;;;3.43;;
11042;SDS011;5574;48.786;10.120;2023-04-29T06:04:47;4.50;;;3.80;;
11042;SDS011;5574;48.786;10.120;2023-04-29T06:07:14;4.00;;;3.70;;
11042;SDS011;5574;48.786;10.120;2023-04-29T06:09:41;4.37;;;3.97;;
11042;SDS011;5574;48.786;10.120;2023-04-29T06:12:09;4.87;;;4.10;;
11042;SDS011;5574;48.786;10.120;2023-04-29T06:14:36;4.90;;;4.57;;
11042;SDS011;5574;48.786;10.120;2023-04-29T06:17:02;5.30;;;4.87;;
11042;SDS011;5574;48.786;10.120;2023-04-29T06:19:29;4.93;;;4.53;;
11042;SDS011;5574;48.786;10.120;2023-04-29T06:21:57;5.87;;;5.37;;
11042;SDS011;5574;48.786;10.120;2023-04-29T06:24:24;6.20;;;5.70;;
11042;SDS011;5574;48.786;10.120;2023-04-29T06:26:51;5.97;;;5.37;;
11042;SDS011;5574;48.786;10.120;2023-04-29T06:29:19;6.20;;;5.70;;
11042;SDS011;5574;48.786;10.120;2023-04-29T06:31:45;6.47;;;5.97;;
11042;SDS011;5574;48.786;10.120;2023-04-29T06:34:12;6.10;;;5.60;;
11042;SDS011;5574;48.786;10.120;2023-04-29T06:36:39;6.13;;;5.67;;
11042;SDS011;5574;48.786;10.120;2023-04-29T06:39:06;5.87;;;5.37;;
11042;SDS011;5574;48.786;10.120;2023-04-29T06:41:32;6.13;;;5.67;;
11042;SDS011;5574;48.786;10.120;2023-04-29T06:44:00;5.17;;;4.77;;
11042;SDS011;5574;48.786;10.120;2023-04-29T06:46:28;5.60;;;5.10;;
11042;SDS011;5574;48.786;10.120;2023-04-29T06:48:55;5.90;;;5.07;;
11042;SDS011;5574;48.786;10.120;2023-04-29T06:51:22;5.20;;;4.70;;
11042;SDS011;5574;48.786;10.120;2023-04-29T06:53:49;5.37;;;4.87;;
11042;SDS011;5574;48.786;10.120;2023-04-29T06:56:15;5.43;;;4.10;;
11042;SDS011;5574;48.786;10.120;2023-04-29T06:58:42;5.07;;;4.57;;
11042;SDS011;5574;48.786;10.120;2023-04-29T07:01:09;5.00;;;4.60;;
11042;SDS011;5574;48.786;10.120;2023-04-29T07:03:37;4.97;;;4.30;;
11042;SDS011;5574;48.786;10.120;2023-04-29T07:06:04;4.57;;;4.20;;
11042;SDS011;5574;48.786;10.120;2023-04-29T07:08:31;6.67;;;4.70;;
11042;SDS011;5574;48.786;10.120;2023-04-29T07:10:57;6.53;;;4.13;;
11042;SDS011;5574;48.786;10.120;2023-04-29T07:13:24;4.72;;;4.35;;
11042;SDS011;5574;48.786;10.120;2023-04-29T07:15:51;4.43;;;4.03;;
11042;SDS011;5574;48.786;10.120;2023-04-29T07:18:18;6.32;;;3.97;;
11042;SDS011;5574;48.786;10.120;2023-04-29T07:20:46;6.13;;;4.80;;
11042;SDS011;5574;48.786;10.120;2023-04-29T07:23:13;6.25;;;4.35;;
11042;SDS011;5574;48.786;10.120;2023-04-29T07:25:40;4.65;;;4.20;;
11042;SDS011;5574;48.786;10.120;2023-04-29T07:28:07;6.43;;;4.55;;
11042;SDS011;5574;48.786;10.120;2023-04-29T07:30:34;4.47;;;4.18;;
11042;SDS011;5574;48.786;10.120;2023-04-29T07:33:01;4.25;;;3.95;;
11042;SDS011;5574;48.786;10.120;2023-04-29T07:35:28;4.83;;;4.13;;
11042;SDS011;5574;48.786;10.120;2023-04-29T07:37:56;4.23;;;3.90;;
11042;SDS011;5574;48.786;10.120;2023-04-29T07:40:23;5.32;;;4.53;;
11042;SDS011;5574;48.786;10.120;2023-04-29T07:42:50;5.40;;;3.55;;
11042;SDS011;5574;48.786;10.120;2023-04-29T07:45:17;3.75;;;3.45;;
11042;SDS011;5574;48.786;10.120;2023-04-29T07:47:43;5.47;;;3.88;;
11042;SDS011;5574;48.786;10.120;2023-04-29T07:50:10;5.43;;;3.42;;
11042;SDS011;5574;48.786;10.120;2023-04-29T07:52:37;4.10;;;3.38;;
11042;SDS011;5574;48.786;10.120;2023-04-29T07:55:06;10.57;;;3.87;;
11042;SDS011;5574;48.786;10.120;2023-04-29T07:57:33;5.23;;;3.53;;
11042;SDS011;5574;48.786;10.120;2023-04-29T08:00:00;3.57;;;3.27;;
11042;SDS011;5574;48.786;10.120;2023-04-29T08:02:27;4.13;;;3.72;;
11042;SDS011;5574;48.786;10.120;2023-04-29T08:04:54;4.97;;;3.53;;
11042;SDS011;5574;48.786;10.120;2023-04-29T08:07:21;4.83;;;3.23;;
11042;SDS011;5574;48.786;10.120;2023-04-29T08:09:47;3.70;;;3.40;;
11042;SDS011;5574;48.786;10.120;2023-04-29T08:12:15;3.67;;;3.35;;
11042;SDS011;5574;48.786;10.120;2023-04-29T08:14:42;3.50;;;3.20;;
11042;SDS011;5574;48.786;10.120;2023-04-29T08:17:09;3.63;;;3.33;;
11042;SDS011;5574;48.786;10.120;2023-04-29T08:19:35;3.25;;;3.05;;
11042;SDS011;5574;48.786;10.120;2023-04-29T08:22:02;3.70;;;3.00;;
11042;SDS011;5574;48.786;10.120;2023-04-29T08:24:29;3.13;;;2.92;;
11042;SDS011;5574;48.786;10.120;2023-04-29T08:26:57;7.45;;;3.67;;
11042;SDS011;5574;48.786;10.120;2023-04-29T08:29:25;4.82;;;3.10;;
11042;SDS011;5574;48.786;10.120;2023-04-29T08:31:52;3.90;;;3.20;;
11042;SDS011;5574;48.786;10.120;2023-04-29T08:34:19;3.08;;;2.88;;
11042;SDS011;5574;48.786;10.120;2023-04-29T08:36:46;4.15;;;2.70;;
11042;SDS011;5574;48.786;10.120;2023-04-29T08:39:13;3.47;;;3.00;;
11042;SDS011;5574;48.786;10.120;2023-04-29T08:41:39;2.20;;;2.10;;
11042;SDS011;5574;48.786;10.120;2023-04-29T08:44:08;2.70;;;2.50;;
11042;SDS011;5574;48.786;10.120;2023-04-29T08:46:36;4.65;;;2.60;;
11042;SDS011;5574;48.786;10.120;2023-04-29T08:49:04;3.22;;;2.97;;
11042;SDS011;5574;48.786;10.120;2023-04-29T08:51:32;3.08;;;2.72;;
11042;SDS011;5574;48.786;10.120;2023-04-29T08:53:59;3.95;;;2.53;;
11042;SDS011;5574;48.786;10.120;2023-04-29T08:56:26;2.83;;;2.63;;
11042;SDS011;5574;48.786;10.120;2023-04-29T08:58:55;2.88;;;2.67;;
11042;SDS011;5574;48.786;10.120;2023-04-29T09:01:23;2.55;;;2.35;;
11042;SDS011;5574;48.786;10.120;2023-04-29T09:03:55;3.35;;;3.05;;
11042;SDS011;5574;48.786;10.120;2023-04-29T09:06:32;7.65;;;3.08;;
11042;SDS011;5574;48.786;10.120;2023-04-29T09:08:59;2.70;;;2.50;;
11042;SDS011;5574;48.786;10.120;2023-04-29T09:11:28;3.50;;;2.42;;
11042;SDS011;5574;48.786;10.120;2023-04-29T09:13:57;3.20;;;2.53;;
11042;SDS011;5574;48.786;10.120;2023-04-29T09:16:25;2.58;;;2.00;;
11042;SDS011;5574;48.786;10.120;2023-04-29T09:18:52;2.78;;;2.40;;
11042;SDS011;5574;48.786;10.120;2023-04-29T09:21:21;3.03;;;2.83;;
11042;SDS011;5574;48.786;10.120;2023-04-29T09:23:49;3.08;;;2.55;;
11042;SDS011;5574;48.786;10.120;2023-04-29T09:26:17;7.45;;;3.13;;
11042;SDS011;5574;48.786;10.120;2023-04-29T09:28:44;2.53;;;2.33;;
11042;SDS011;5574;48.786;10.120;2023-04-29T09:31:12;2.78;;;2.50;;
11042;SDS011;5574;48.786;10.120;2023-04-29T09:33:49;2.40;;;2.20;;
11042;SDS011;5574;48.786;10.120;2023-04-29T09:39:09;2.42;;;2.10;;
11042;SDS011;5574;48.786;10.120;2023-04-29T09:41:37;4.22;;;2.22;;
11042;SDS011;5574;48.786;10.120;2023-04-29T09:44:05;2.45;;;2.25;;
11042;SDS011;5574;48.786;10.120;2023-04-29T09:46:33;2.60;;;2.40;;
11042;SDS011;5574;48.786;10.120;2023-04-29T09:49:00;2.60;;;2.00;;
11042;SDS011;5574;48.786;10.120;2023-04-29T09:51:28;2.20;;;2.00;;
11042;SDS011;5574;48.786;10.120;2023-04-29T09:53:57;4.57;;;2.28;;
11042;SDS011;5574;48.786;10.120;2023-04-29T09:56:25;2.28;;;2.05;;
11042;SDS011;5574;48.786;10.120;2023-04-29T09:58:54;2.47;;;1.90;;
11042;SDS011;5574;48.786;10.120;2023-04-29T10:01:23;2.40;;;2.10;;
11042;SDS011;5574;48.786;10.120;2023-04-29T10:03:52;2.15;;;1.98;;
11042;SDS011;5574;48.786;10.120;2023-04-29T10:06:21;2.55;;;2.30;;
11042;SDS011;5574;48.786;10.120;2023-04-29T10:08:49;3.70;;;2.25;;
11042;SDS011;5574;48.786;10.120;2023-04-29T10:11:18;2.65;;;2.17;;
11042;SDS011;5574;48.786;10.120;2023-04-29T10:13:46;2.95;;;2.20;;
11042;SDS011;5574;48.786;10.120;2023-04-29T10:16:18;3.00;;;2.28;;
11042;SDS011;5574;48.786;10.120;2023-04-29T10:18:54;2.25;;;2.00;;
11042;SDS011;5574;48.786;10.120;2023-04-29T10:21:26;2.30;;;2.20;;
11042;SDS011;5574;48.786;10.120;2023-04-29T10:23:55;2.38;;;2.17;;
11042;SDS011;5574;48.786;10.120;2023-04-29T10:26:25;2.85;;;2.38;;
11042;SDS011;5574;48.786;10.120;2023-04-29T10:28:53;2.30;;;2.13;;
11042;SDS011;5574;48.786;10.120;2023-04-29T10:31:21;2.83;;;2.40;;
11042;SDS011;5574;48.786;10.120;2023-04-29T10:33:51;2.00;;;1.90;;
11042;SDS011;5574;48.786;10.120;2023-04-29T10:36:21;2.03;;;1.90;;
11042;SDS011;5574;48.786;10.120;2023-04-29T10:38:52;3.92;;;2.10;;
11042;SDS011;5574;48.786;10.120;2023-04-29T10:41:21;2.72;;;2.10;;
11042;SDS011;5574;48.786;10.120;2023-04-29T10:43:54;2.03;;;1.92;;
11042;SDS011;5574;48.786;10.120;2023-04-29T10:46:21;2.30;;;2.10;;
11042;SDS011;5574;48.786;10.120;2023-04-29T10:48:50;2.20;;;2.00;;
11042;SDS011;5574;48.786;10.120;2023-04-29T10:51:27;2.40;;;2.20;;
11042;SDS011;5574;48.786;10.120;2023-04-29T10:53:57;3.63;;;2.00;;
11042;SDS011;5574;48.786;10.120;2023-04-29T10:56:34;2.30;;;2.20;;
11042;SDS011;5574;48.786;10.120;2023-04-29T10:59:06;2.00;;;1.90;;
11042;SDS011;5574;48.786;10.120;2023-04-29T11:01:43;2.47;;;2.28;;
11042;SDS011;5574;48.786;10.120;2023-04-29T11:04:11;2.38;;;2.17;;
11042;SDS011;5574;48.786;10.120;2023-04-29T11:06:40;2.53;;;2.33;;
11042;SDS011;5574;48.786;10.120;2023-04-29T11:09:12;3.25;;;2.85;;
11042;SDS011;5574;48.786;10.120;2023-04-29T11:11:40;2.30;;;2.10;;
11042;SDS011;5574;48.786;10.120;2023-04-29T11:14:14;4.40;;;2.10;;
11042;SDS011;5574;48.786;10.120;2023-04-29T11:16:50;2.25;;;2.05;;
11042;SDS011;5574;48.786;10.120;2023-04-29T11:19:18;2.65;;;1.90;;
11042;SDS011;5574;48.786;10.120;2023-04-29T11:21:45;2.00;;;1.90;;
11042;SDS011;5574;48.786;10.120;2023-04-29T11:24:12;1.95;;;1.85;;
11042;SDS011;5574;48.786;10.120;2023-04-29T11:26:41;2.53;;;2.33;;
11042;SDS011;5574;48.786;10.120;2023-04-29T11:29:08;2.13;;;1.98;;
11042;SDS011;5574;48.786;10.120;2023-04-29T11:31:36;2.03;;;1.92;;
11042;SDS011;5574;48.786;10.120;2023-04-29T11:34:03;2.15;;;1.83;;
11042;SDS011;5574;48.786;10.120;2023-04-29T11:36:31;2.13;;;2.03;;
11042;SDS011;5574;48.786;10.120;2023-04-29T11:38:58;1.90;;;1.80;;
11042;SDS011;5574;48.786;10.120;2023-04-29T11:41:26;2.33;;;1.80;;
11042;SDS011;5574;48.786;10.120;2023-04-29T11:43:56;1.85;;;1.75;;
11042;SDS011;5574;48.786;10.120;2023-04-29T11:46:25;2.00;;;1.90;;
11042;SDS011;5574;48.786;10.120;2023-04-29T11:48:56;1.90;;;1.80;;
11042;SDS011;5574;48.786;10.120;2023-04-29T11:51:24;1.70;;;1.60;;
11042;SDS011;5574;48.786;10.120;2023-04-29T11:53:52;2.67;;;2.00;;
11042;SDS011;5574;48.786;10.120;2023-04-29T11:56:22;2.08;;;1.98;;
11042;SDS011;5574;48.786;10.120;2023-04-29T11:58:52;2.03;;;1.92;;
11042;SDS011;5574;48.786;10.120;2023-04-29T12:01:20;2.65;;;2.13;;
11042;SDS011;5574;48.786;10.120;2023-04-29T12:03:47;3.55;;;2.33;;
11042;SDS011;5574;48.786;10.120;2023-04-29T12:06:16;2.42;;;2.08;;
11042;SDS011;5574;48.786;10.120;2023-04-29T12:08:42;1.90;;;1.80;;
11042;SDS011;5574;48.786;10.120;2023-04-29T12:11:12;2.20;;;2.05;;
11042;SDS011;5574;48.786;10.120;2023-04-29T12:13:39;2.47;;;2.28;;
11042;SDS011;5574;48.786;10.120;2023-04-29T12:16:06;2.40;;;2.20;;
11042;SDS011;5574;48.786;10.120;2023-04-29T12:18:33;3.30;;;2.60;;
11042;SDS011;5574;48.786;10.120;2023-04-29T12:21:00;2.00;;;1.90;;
11042;SDS011;5574;48.786;10.120;2023-04-29T12:23:28;2.55;;;2.35;;
11042;SDS011;5574;48.786;10.120;2023-04-29T12:25:56;6.65;;;2.30;;
11042;SDS011;5574;48.786;10.120;2023-04-29T12:28:24;2.53;;;2.30;;
11042;SDS011;5574;48.786;10.120;2023-04-29T12:30:52;2.45;;;2.25;;
11042;SDS011;5574;48.786;10.120;2023-04-29T12:33:19;2.20;;;2.10;;
11042;SDS011;5574;48.786;10.120;2023-04-29T12:35:47;1.90;;;1.80;;
11042;SDS011;5574;48.786;10.120;2023-04-29T12:38:20;4.68;;;1.80;;
11042;SDS011;5574;48.786;10.120;2023-04-29T12:40:49;2.15;;;2.05;;
11042;SDS011;5574;48.786;10.120;2023-04-29T12:43:16;2.05;;;1.95;;
11042;SDS011;5574;48.786;10.120;2023-04-29T12:45:42;2.17;;;2.08;;
11042;SDS011;5574;48.786;10.120;2023-04-29T12:48:09;8.73;;;2.25;;
11042;SDS011;5574;48.786;10.120;2023-04-29T12:50:37;2.15;;;1.73;;
11042;SDS011;5574;48.786;10.120;2023-04-29T12:53:05;3.28;;;1.80;;
11042;SDS011;5574;48.786;10.120;2023-04-29T12:55:33;2.10;;;1.88;;
11042;SDS011;5574;48.786;10.120;2023-04-29T12:58:02;2.22;;;2.13;;
11042;SDS011;5574;48.786;10.120;2023-04-29T13:00:31;2.35;;;2.25;;
11042;SDS011;5574;48.786;10.120;2023-04-29T13:02:58;2.30;;;2.00;;
11042;SDS011;5574;48.786;10.120;2023-04-29T13:05:25;1.98;;;1.88;;
11042;SDS011;5574;48.786;10.120;2023-04-29T13:07:52;2.63;;;1.67;;
11042;SDS011;5574;48.786;10.120;2023-04-29T13:10:18;1.88;;;1.77;;
11042;SDS011;5574;48.786;10.120;2023-04-29T13:12:45;3.88;;;2.10;;
11042;SDS011;5574;48.786;10.120;2023-04-29T13:15:13;2.33;;;2.17;;
11042;SDS011;5574;48.786;10.120;2023-04-29T13:17:40;3.83;;;2.05;;
11042;SDS011;5574;48.786;10.120;2023-04-29T13:20:07;2.47;;;1.98;;
11042;SDS011;5574;48.786;10.120;2023-04-29T13:22:35;2.47;;;2.28;;
11042;SDS011;5574;48.786;10.120;2023-04-29T13:25:02;4.88;;;2.33;;
11042;SDS011;5574;48.786;10.120;2023-04-29T13:27:29;3.20;;;2.00;;
11042;SDS011;5574;48.786;10.120;2023-04-29T13:29:56;2.45;;;2.10;;
11042;SDS011;5574;48.786;10.120;2023-04-29T13:32:24;1.90;;;1.80;;
11042;SDS011;5574;48.786;10.120;2023-04-29T13:34:51;2.65;;;2.10;;
11042;SDS011;5574;48.786;10.120;2023-04-29T13:37:18;2.97;;;1.80;;
11042;SDS011;5574;48.786;10.120;2023-04-29T13:39:45;4.28;;;2.40;;
11042;SDS011;5574;48.786;10.120;2023-04-29T13:42:12;2.72;;;2.53;;
11042;SDS011;5574;48.786;10.120;2023-04-29T13:44:39;3.10;;;2.90;;
11042;SDS011;5574;48.786;10.120;2023-04-29T13:47:08;3.20;;;3.00;;
11042;SDS011;5574;48.786;10.120;2023-04-29T13:49:37;3.10;;;2.90;;
11042;SDS011;5574;48.786;10.120;2023-04-29T13:52:04;3.20;;;3.00;;
11042;SDS011;5574;48.786;10.120;2023-04-29T13:54:31;3.03;;;2.83;;
11042;SDS011;5574;48.786;10.120;2023-04-29T13:56:58;4.03;;;3.22;;
11042;SDS011;5574;48.786;10.120;2023-04-29T13:59:25;4.35;;;3.92;;
11042;SDS011;5574;48.786;10.120;2023-04-29T14:01:52;4.00;;;3.63;;
11042;SDS011;5574;48.786;10.120;2023-04-29T14:04:18;4.75;;;3.92;;
11042;SDS011;5574;48.786;10.120;2023-04-29T14:06:46;6.65;;;3.65;;
11042;SDS011;5574;48.786;10.120;2023-04-29T14:09:13;4.43;;;4.07;;
11042;SDS011;5574;48.786;10.120;2023-04-29T14:11:40;4.47;;;4.07;;
11042;SDS011;5574;48.786;10.120;2023-04-29T14:14:07;4.50;;;4.10;;
11042;SDS011;5574;48.786;10.120;2023-04-29T14:16:34;4.50;;;4.20;;
11042;SDS011;5574;48.786;10.120;2023-04-29T14:19:01;4.55;;;4.15;;
11042;SDS011;5574;48.786;10.120;2023-04-29T14:21:27;4.80;;;4.40;;
11042;SDS011;5574;48.786;10.120;2023-04-29T14:23:57;4.55;;;4.15;;
11042;SDS011;5574;48.786;10.120;2023-04-29T14:26:24;4.18;;;3.80;;
11042;SDS011;5574;48.786;10.120;2023-04-29T14:28:51;4.30;;;3.90;;
11042;SDS011;5574;48.786;10.120;2023-04-29T14:31:21;3.95;;;3.63;;
11042;SDS011;5574;48.786;10.120;2023-04-29T14:33:48;4.10;;;3.80;;
11042;SDS011;5574;48.786;10.120;2023-04-29T14:36:15;3.90;;;3.60;;
11042;SDS011;5574;48.786;10.120;2023-04-29T14:38:42;4.05;;;3.67;;
11042;SDS011;5574;48.786;10.120;2023-04-29T14:41:10;4.00;;;3.70;;
11042;SDS011;5574;48.786;10.120;2023-04-29T14:43:37;5.53;;;3.72;;
11042;SDS011;5574;48.786;10.120;2023-04-29T14:46:05;4.43;;;4.07;;
11042;SDS011;5574;48.786;10.120;2023-04-29T14:48:32;3.75;;;3.45;;
11042;SDS011;5574;48.786;10.120;2023-04-29T14:50:59;4.20;;;3.80;;
11042;SDS011;5574;48.786;10.120;2023-04-29T14:53:26;4.22;;;3.90;;
11042;SDS011;5574;48.786;10.120;2023-04-29T14:55:52;5.03;;;4.63;;